sensor_id;sensor_type;location;lat;lon;timestamp;P1;durP1;ratioP1;P2;durP2;ratioP2
21181;SDS011;10749;46.296;7.524;2023-07-20T00:02:09;5.93;;;3.42;;
21181;SDS011;10749;46.296;7.524;2023-07-20T00:04:35;5.45;;;3.40;;
21181;SDS011;10749;46.296;7.524;2023-07-20T00:07:00;5.60;;;4.00;;
21181;SDS011;10749;46.296;7.524;2023-07-20T00:09:26;4.38;;;3.30;;
21181;SDS011;10749;46.296;7.524;2023-07-20T00:11:52;6.35;;;3.78;;
21181;SDS011;10749;46.296;7.524;2023-07-20T00:14:17;5.00;;;3.47;;
21181;SDS011;10749;46.296;7.524;2023-07-20T00:16:44;5.18;;;3.55;;
21181;SDS011;10749;46.296;7.524;2023-07-20T00:19:11;6.15;;;4.05;;
21181;SDS011;10749;46.296;7.524;2023-07-20T00:21:37;5.25;;;3.50;;
21181;SDS011;10749;46.296;7.524;2023-07-20T00:24:05;5.25;;;3.35;;
21181;SDS011;10749;46.296;7.524;2023-07-20T00:26:30;4.47;;;3.55;;
21181;SDS011;10749;46.296;7.524;2023-07-20T00:28:56;4.80;;;3.60;;
21181;SDS011;10749;46.296;7.524;2023-07-20T00:31:21;5.05;;;3.60;;
21181;SDS011;10749;46.296;7.524;2023-07-20T00:33:46;6.80;;;3.90;;
21181;SDS011;10749;46.296;7.524;2023-07-20T00:36:12;5.72;;;3.40;;
21181;SDS011;10749;46.296;7.524;2023-07-20T00:38:37;5.05;;;3.47;;
21181;SDS011;10749;46.296;7.524;2023-07-20T00:41:03;5.50;;;3.50;;
21181;SDS011;10749;46.296;7.524;2023-07-20T00:43:28;6.05;;;3.47;;
21181;SDS011;10749;46.296;7.524;2023-07-20T00:45:53;4.63;;;3.40;;
21181;SDS011;10749;46.296;7.524;2023-07-20T00:48:18;4.72;;;3.60;;
21181;SDS011;10749;46.296;7.524;2023-07-20T00:50:44;4.78;;;3.30;;
21181;SDS011;10749;46.296;7.524;2023-07-20T00:53:11;4.50;;;3.47;;
21181;SDS011;10749;46.296;7.524;2023-07-20T00:55:36;3.80;;;3.17;;
21181;SDS011;10749;46.296;7.524;2023-07-20T00:58:02;4.55;;;3.50;;
21181;SDS011;10749;46.296;7.524;2023-07-20T01:00:27;4.25;;;3.10;;
21181;SDS011;10749;46.296;7.524;2023-07-20T01:02:52;4.45;;;3.40;;
21181;SDS011;10749;46.296;7.524;2023-07-20T01:05:18;5.50;;;3.75;;
21181;SDS011;10749;46.296;7.524;2023-07-20T01:07:52;5.85;;;3.97;;
21181;SDS011;10749;46.296;7.524;2023-07-20T01:10:25;4.35;;;3.40;;
21181;SDS011;10749;46.296;7.524;2023-07-20T01:12:56;4.43;;;3.35;;
21181;SDS011;10749;46.296;7.524;2023-07-20T01:15:22;6.78;;;3.58;;
21181;SDS011;10749;46.296;7.524;2023-07-20T01:17:48;5.28;;;3.53;;
21181;SDS011;10749;46.296;7.524;2023-07-20T01:20:14;4.45;;;3.40;;
21181;SDS011;10749;46.296;7.524;2023-07-20T01:25:29;4.88;;;3.95;;
21181;SDS011;10749;46.296;7.524;2023-07-20T01:30:45;5.32;;;3.50;;
21181;SDS011;10749;46.296;7.524;2023-07-20T01:33:11;4.93;;;3.00;;
21181;SDS011;10749;46.296;7.524;2023-07-20T01:35:40;4.55;;;3.33;;
21181;SDS011;10749;46.296;7.524;2023-07-20T01:38:08;6.10;;;3.70;;
21181;SDS011;10749;46.296;7.524;2023-07-20T01:40:36;4.50;;;2.88;;
21181;SDS011;10749;46.296;7.524;2023-07-20T01:43:02;4.55;;;3.53;;
21181;SDS011;10749;46.296;7.524;2023-07-20T01:45:28;4.88;;;3.47;;
21181;SDS011;10749;46.296;7.524;2023-07-20T01:47:53;4.35;;;3.53;;
21181;SDS011;10749;46.296;7.524;2023-07-20T01:50:18;4.15;;;3.28;;
21181;SDS011;10749;46.296;7.524;2023-07-20T01:52:44;4.78;;;3.20;;
21181;SDS011;10749;46.296;7.524;2023-07-20T01:55:09;4.32;;;3.22;;
21181;SDS011;10749;46.296;7.524;2023-07-20T01:57:35;4.97;;;3.30;;
21181;SDS011;10749;46.296;7.524;2023-07-20T02:00:00;4.80;;;3.20;;
21181;SDS011;10749;46.296;7.524;2023-07-20T02:02:26;3.53;;;3.17;;
21181;SDS011;10749;46.296;7.524;2023-07-20T02:04:53;4.68;;;3.55;;
21181;SDS011;10749;46.296;7.524;2023-07-20T02:07:18;4.85;;;3.30;;
21181;SDS011;10749;46.296;7.524;2023-07-20T02:09:43;5.55;;;3.28;;
21181;SDS011;10749;46.296;7.524;2023-07-20T02:12:09;6.20;;;3.33;;
21181;SDS011;10749;46.296;7.524;2023-07-20T02:14:34;6.18;;;3.63;;
21181;SDS011;10749;46.296;7.524;2023-07-20T02:16:59;4.80;;;3.72;;
21181;SDS011;10749;46.296;7.524;2023-07-20T02:19:26;6.00;;;3.53;;
21181;SDS011;10749;46.296;7.524;2023-07-20T02:21:52;5.32;;;3.25;;
21181;SDS011;10749;46.296;7.524;2023-07-20T02:24:17;4.95;;;3.72;;
21181;SDS011;10749;46.296;7.524;2023-07-20T02:26:42;5.72;;;3.45;;
21181;SDS011;10749;46.296;7.524;2023-07-20T02:29:08;6.43;;;3.72;;
21181;SDS011;10749;46.296;7.524;2023-07-20T02:31:36;4.80;;;3.10;;
21181;SDS011;10749;46.296;7.524;2023-07-20T02:34:07;5.70;;;3.63;;
21181;SDS011;10749;46.296;7.524;2023-07-20T02:36:34;6.78;;;3.42;;
21181;SDS011;10749;46.296;7.524;2023-07-20T02:38:59;6.55;;;3.55;;
21181;SDS011;10749;46.296;7.524;2023-07-20T02:41:25;6.68;;;3.42;;
21181;SDS011;10749;46.296;7.524;2023-07-20T02:43:50;6.55;;;3.60;;
21181;SDS011;10749;46.296;7.524;2023-07-20T02:46:16;4.13;;;3.25;;
21181;SDS011;10749;46.296;7.524;2023-07-20T02:48:41;7.35;;;4.10;;
21181;SDS011;10749;46.296;7.524;2023-07-20T02:51:06;4.40;;;3.58;;
21181;SDS011;10749;46.296;7.524;2023-07-20T02:53:32;3.40;;;3.08;;
21181;SDS011;10749;46.296;7.524;2023-07-20T02:55:58;4.20;;;3.03;;
21181;SDS011;10749;46.296;7.524;2023-07-20T02:58:23;5.22;;;3.72;;
21181;SDS011;10749;46.296;7.524;2023-07-20T03:00:49;5.78;;;3.50;;
21181;SDS011;10749;46.296;7.524;2023-07-20T03:03:14;6.55;;;3.40;;
21181;SDS011;10749;46.296;7.524;2023-07-20T03:05:42;4.30;;;2.97;;
21181;SDS011;10749;46.296;7.524;2023-07-20T03:08:08;11.82;;;3.65;;
21181;SDS011;10749;46.296;7.524;2023-07-20T03:10:38;4.00;;;3.60;;
21181;SDS011;10749;46.296;7.524;2023-07-20T03:13:04;5.40;;;3.17;;
21181;SDS011;10749;46.296;7.524;2023-07-20T03:15:29;3.97;;;3.25;;
21181;SDS011;10749;46.296;7.524;2023-07-20T03:17:54;5.35;;;3.30;;
21181;SDS011;10749;46.296;7.524;2023-07-20T03:20:19;8.25;;;3.78;;
21181;SDS011;10749;46.296;7.524;2023-07-20T03:22:45;6.45;;;3.65;;
21181;SDS011;10749;46.296;7.524;2023-07-20T03:25:11;6.45;;;3.53;;
21181;SDS011;10749;46.296;7.524;2023-07-20T03:27:36;6.07;;;3.47;;
21181;SDS011;10749;46.296;7.524;2023-07-20T03:30:01;6.07;;;4.05;;
21181;SDS011;10749;46.296;7.524;2023-07-20T03:32:27;5.57;;;3.60;;
21181;SDS011;10749;46.296;7.524;2023-07-20T03:34:52;6.03;;;4.00;;
21181;SDS011;10749;46.296;7.524;2023-07-20T03:37:17;6.72;;;3.90;;
21181;SDS011;10749;46.296;7.524;2023-07-20T03:39:43;6.78;;;3.78;;
21181;SDS011;10749;46.296;7.524;2023-07-20T03:42:08;5.70;;;3.83;;
21181;SDS011;10749;46.296;7.524;2023-07-20T03:44:36;5.15;;;3.60;;
21181;SDS011;10749;46.296;7.524;2023-07-20T03:47:01;4.57;;;3.45;;
21181;SDS011;10749;46.296;7.524;2023-07-20T03:49:28;4.85;;;3.80;;
21181;SDS011;10749;46.296;7.524;2023-07-20T03:51:53;6.18;;;3.70;;
21181;SDS011;10749;46.296;7.524;2023-07-20T03:54:19;5.90;;;3.70;;
21181;SDS011;10749;46.296;7.524;2023-07-20T03:56:44;7.88;;;3.60;;
21181;SDS011;10749;46.296;7.524;2023-07-20T03:59:10;5.60;;;3.88;;
21181;SDS011;10749;46.296;7.524;2023-07-20T04:01:35;6.80;;;4.22;;
21181;SDS011;10749;46.296;7.524;2023-07-20T04:04:04;6.80;;;3.72;;
21181;SDS011;10749;46.296;7.524;2023-07-20T04:06:31;7.60;;;3.78;;
21181;SDS011;10749;46.296;7.524;2023-07-20T04:08:56;6.68;;;3.88;;
21181;SDS011;10749;46.296;7.524;2023-07-20T04:11:21;6.00;;;4.00;;
21181;SDS011;10749;46.296;7.524;2023-07-20T04:13:47;5.55;;;3.80;;
21181;SDS011;10749;46.296;7.524;2023-07-20T04:16:12;8.50;;;3.85;;
21181;SDS011;10749;46.296;7.524;2023-07-20T04:18:37;7.63;;;4.07;;
21181;SDS011;10749;46.296;7.524;2023-07-20T04:21:03;6.53;;;3.72;;
21181;SDS011;10749;46.296;7.524;2023-07-20T04:23:28;5.45;;;3.88;;
21181;SDS011;10749;46.296;7.524;2023-07-20T04:25:53;7.35;;;3.67;;
21181;SDS011;10749;46.296;7.524;2023-07-20T04:28:18;6.80;;;3.92;;
21181;SDS011;10749;46.296;7.524;2023-07-20T04:30:44;8.13;;;4.35;;
21181;SDS011;10749;46.296;7.524;2023-07-20T04:33:09;5.20;;;3.78;;
21181;SDS011;10749;46.296;7.524;2023-07-20T04:35:47;4.35;;;3.70;;
21181;SDS011;10749;46.296;7.524;2023-07-20T04:38:15;4.80;;;3.30;;
21181;SDS011;10749;46.296;7.524;2023-07-20T04:40:42;6.40;;;3.75;;
21181;SDS011;10749;46.296;7.524;2023-07-20T04:43:11;7.78;;;4.18;;
21181;SDS011;10749;46.296;7.524;2023-07-20T04:45:36;5.70;;;3.80;;
21181;SDS011;10749;46.296;7.524;2023-07-20T04:48:02;5.07;;;3.70;;
21181;SDS011;10749;46.296;7.524;2023-07-20T04:50:27;7.82;;;3.90;;
21181;SDS011;10749;46.296;7.524;2023-07-20T04:52:53;6.47;;;4.40;;
21181;SDS011;10749;46.296;7.524;2023-07-20T04:55:18;8.32;;;4.13;;
21181;SDS011;10749;46.296;7.524;2023-07-20T04:57:44;5.85;;;3.40;;
21181;SDS011;10749;46.296;7.524;2023-07-20T05:00:09;6.03;;;3.78;;
21181;SDS011;10749;46.296;7.524;2023-07-20T05:02:36;4.57;;;3.42;;
21181;SDS011;10749;46.296;7.524;2023-07-20T05:05:02;5.93;;;3.72;;
21181;SDS011;10749;46.296;7.524;2023-07-20T05:07:30;5.60;;;4.07;;
21181;SDS011;10749;46.296;7.524;2023-07-20T05:09:56;5.75;;;3.75;;
21181;SDS011;10749;46.296;7.524;2023-07-20T05:12:21;6.35;;;4.10;;
21181;SDS011;10749;46.296;7.524;2023-07-20T05:14:46;7.07;;;3.78;;
21181;SDS011;10749;46.296;7.524;2023-07-20T05:17:12;5.78;;;4.00;;
21181;SDS011;10749;46.296;7.524;2023-07-20T05:19:37;5.13;;;3.88;;
21181;SDS011;10749;46.296;7.524;2023-07-20T05:22:02;7.20;;;4.00;;
21181;SDS011;10749;46.296;7.524;2023-07-20T05:24:29;8.90;;;4.30;;
21181;SDS011;10749;46.296;7.524;2023-07-20T05:26:54;6.53;;;3.90;;
21181;SDS011;10749;46.296;7.524;2023-07-20T05:29:19;11.23;;;3.83;;
21181;SDS011;10749;46.296;7.524;2023-07-20T05:31:45;7.47;;;3.88;;
21181;SDS011;10749;46.296;7.524;2023-07-20T05:34:10;6.90;;;3.70;;
21181;SDS011;10749;46.296;7.524;2023-07-20T05:36:35;5.22;;;3.63;;
21181;SDS011;10749;46.296;7.524;2023-07-20T05:39:01;7.40;;;3.75;;
21181;SDS011;10749;46.296;7.524;2023-07-20T05:41:27;8.48;;;3.83;;
21181;SDS011;10749;46.296;7.524;2023-07-20T05:43:52;5.13;;;3.97;;
21181;SDS011;10749;46.296;7.524;2023-07-20T05:46:17;7.32;;;4.20;;
21181;SDS011;10749;46.296;7.524;2023-07-20T05:48:43;5.80;;;4.00;;
21181;SDS011;10749;46.296;7.524;2023-07-20T05:51:08;7.78;;;4.05;;
21181;SDS011;10749;46.296;7.524;2023-07-20T05:53:34;4.82;;;3.53;;
21181;SDS011;10749;46.296;7.524;2023-07-20T05:56:00;7.10;;;4.20;;
21181;SDS011;10749;46.296;7.524;2023-07-20T05:58:25;6.03;;;4.18;;
21181;SDS011;10749;46.296;7.524;2023-07-20T06:00:51;6.43;;;4.13;;
21181;SDS011;10749;46.296;7.524;2023-07-20T06:03:18;5.03;;;3.92;;
21181;SDS011;10749;46.296;7.524;2023-07-20T06:05:46;5.20;;;3.97;;
21181;SDS011;10749;46.296;7.524;2023-07-20T06:08:11;8.15;;;3.90;;
21181;SDS011;10749;46.296;7.524;2023-07-20T06:10:36;8.32;;;3.92;;
21181;SDS011;10749;46.296;7.524;2023-07-20T06:13:02;7.72;;;4.40;;
21181;SDS011;10749;46.296;7.524;2023-07-20T06:15:28;12.88;;;4.88;;
21181;SDS011;10749;46.296;7.524;2023-07-20T06:17:56;8.00;;;4.38;;
21181;SDS011;10749;46.296;7.524;2023-07-20T06:20:23;5.85;;;4.00;;
21181;SDS011;10749;46.296;7.524;2023-07-20T06:22:48;8.80;;;4.43;;
21181;SDS011;10749;46.296;7.524;2023-07-20T06:25:13;7.82;;;4.55;;
21181;SDS011;10749;46.296;7.524;2023-07-20T06:27:39;7.40;;;4.43;;
21181;SDS011;10749;46.296;7.524;2023-07-20T06:30:04;9.82;;;4.10;;
21181;SDS011;10749;46.296;7.524;2023-07-20T06:32:30;5.68;;;3.97;;
21181;SDS011;10749;46.296;7.524;2023-07-20T06:34:55;7.10;;;4.40;;
21181;SDS011;10749;46.296;7.524;2023-07-20T06:37:20;6.95;;;4.38;;
21181;SDS011;10749;46.296;7.524;2023-07-20T06:39:46;7.70;;;4.82;;
21181;SDS011;10749;46.296;7.524;2023-07-20T06:42:12;7.15;;;4.30;;
21181;SDS011;10749;46.296;7.524;2023-07-20T06:44:37;8.15;;;4.38;;
21181;SDS011;10749;46.296;7.524;2023-07-20T06:47:02;7.35;;;4.60;;
21181;SDS011;10749;46.296;7.524;2023-07-20T06:49:28;5.53;;;4.53;;
21181;SDS011;10749;46.296;7.524;2023-07-20T06:51:53;6.00;;;4.68;;
21181;SDS011;10749;46.296;7.524;2023-07-20T06:54:19;7.28;;;4.45;;
21181;SDS011;10749;46.296;7.524;2023-07-20T06:56:44;7.38;;;4.95;;
21181;SDS011;10749;46.296;7.524;2023-07-20T06:59:11;10.68;;;4.55;;
21181;SDS011;10749;46.296;7.524;2023-07-20T07:01:36;8.80;;;4.40;;
21181;SDS011;10749;46.296;7.524;2023-07-20T07:04:01;6.90;;;4.15;;
21181;SDS011;10749;46.296;7.524;2023-07-20T07:06:27;8.00;;;4.57;;
21181;SDS011;10749;46.296;7.524;2023-07-20T07:08:52;6.47;;;4.25;;
21181;SDS011;10749;46.296;7.524;2023-07-20T07:11:18;6.60;;;4.07;;
21181;SDS011;10749;46.296;7.524;2023-07-20T07:13:43;7.05;;;4.05;;
21181;SDS011;10749;46.296;7.524;2023-07-20T07:16:11;5.65;;;4.15;;
21181;SDS011;10749;46.296;7.524;2023-07-20T07:18:36;6.28;;;4.20;;
21181;SDS011;10749;46.296;7.524;2023-07-20T07:21:02;6.60;;;3.90;;
21181;SDS011;10749;46.296;7.524;2023-07-20T07:23:27;6.32;;;4.05;;
21181;SDS011;10749;46.296;7.524;2023-07-20T07:25:52;6.93;;;4.13;;
21181;SDS011;10749;46.296;7.524;2023-07-20T07:28:18;9.15;;;4.15;;
21181;SDS011;10749;46.296;7.524;2023-07-20T07:30:43;8.60;;;3.97;;
21181;SDS011;10749;46.296;7.524;2023-07-20T07:33:08;6.10;;;3.90;;
21181;SDS011;10749;46.296;7.524;2023-07-20T07:35:35;9.45;;;3.83;;
21181;SDS011;10749;46.296;7.524;2023-07-20T07:38:00;5.32;;;4.20;;
21181;SDS011;10749;46.296;7.524;2023-07-20T07:40:26;6.60;;;4.15;;
21181;SDS011;10749;46.296;7.524;2023-07-20T07:42:51;5.70;;;4.13;;
21181;SDS011;10749;46.296;7.524;2023-07-20T07:45:16;5.93;;;3.95;;
21181;SDS011;10749;46.296;7.524;2023-07-20T07:47:42;6.40;;;4.22;;
21181;SDS011;10749;46.296;7.524;2023-07-20T07:50:07;6.85;;;4.07;;
21181;SDS011;10749;46.296;7.524;2023-07-20T07:52:32;4.97;;;4.05;;
21181;SDS011;10749;46.296;7.524;2023-07-20T07:54:58;5.95;;;3.65;;
21181;SDS011;10749;46.296;7.524;2023-07-20T07:57:23;4.80;;;3.72;;
21181;SDS011;10749;46.296;7.524;2023-07-20T07:59:48;5.72;;;4.20;;
21181;SDS011;10749;46.296;7.524;2023-07-20T08:02:15;4.95;;;3.72;;
21181;SDS011;10749;46.296;7.524;2023-07-20T08:04:40;5.03;;;3.47;;
21181;SDS011;10749;46.296;7.524;2023-07-20T08:07:05;7.28;;;4.00;;
21181;SDS011;10749;46.296;7.524;2023-07-20T08:09:31;6.32;;;3.88;;
21181;SDS011;10749;46.296;7.524;2023-07-20T08:11:56;5.40;;;3.50;;
21181;SDS011;10749;46.296;7.524;2023-07-20T08:14:21;4.55;;;3.35;;
21181;SDS011;10749;46.296;7.524;2023-07-20T08:16:46;5.28;;;3.55;;
21181;SDS011;10749;46.296;7.524;2023-07-20T08:19:12;5.63;;;3.33;;
21181;SDS011;10749;46.296;7.524;2023-07-20T08:21:37;4.85;;;3.40;;
21181;SDS011;10749;46.296;7.524;2023-07-20T08:24:03;7.18;;;3.85;;
21181;SDS011;10749;46.296;7.524;2023-07-20T08:26:29;7.15;;;3.22;;
21181;SDS011;10749;46.296;7.524;2023-07-20T08:28:54;7.47;;;3.50;;
21181;SDS011;10749;46.296;7.524;2023-07-20T08:31:19;5.75;;;3.53;;
21181;SDS011;10749;46.296;7.524;2023-07-20T08:33:45;8.10;;;3.38;;
21181;SDS011;10749;46.296;7.524;2023-07-20T08:36:10;4.80;;;3.45;;
21181;SDS011;10749;46.296;7.524;2023-07-20T08:38:36;7.15;;;3.47;;
21181;SDS011;10749;46.296;7.524;2023-07-20T08:41:01;8.52;;;3.95;;
21181;SDS011;10749;46.296;7.524;2023-07-20T08:43:27;5.97;;;3.97;;
21181;SDS011;10749;46.296;7.524;2023-07-20T08:45:56;4.65;;;4.10;;
21181;SDS011;10749;46.296;7.524;2023-07-20T08:48:22;5.40;;;3.67;;
21181;SDS011;10749;46.296;7.524;2023-07-20T08:50:52;5.50;;;3.83;;
21181;SDS011;10749;46.296;7.524;2023-07-20T08:53:19;6.20;;;4.53;;
21181;SDS011;10749;46.296;7.524;2023-07-20T08:55:45;6.60;;;4.10;;
21181;SDS011;10749;46.296;7.524;2023-07-20T08:58:12;6.50;;;4.10;;
21181;SDS011;10749;46.296;7.524;2023-07-20T09:00:39;8.00;;;3.88;;
21181;SDS011;10749;46.296;7.524;2023-07-20T09:03:06;5.05;;;3.75;;
21181;SDS011;10749;46.296;7.524;2023-07-20T09:05:31;5.97;;;3.70;;
21181;SDS011;10749;46.296;7.524;2023-07-20T09:07:57;8.38;;;4.18;;
21181;SDS011;10749;46.296;7.524;2023-07-20T09:10:23;7.68;;;3.80;;
21181;SDS011;10749;46.296;7.524;2023-07-20T09:12:49;5.10;;;3.60;;
21181;SDS011;10749;46.296;7.524;2023-07-20T09:15:14;5.63;;;3.42;;
21181;SDS011;10749;46.296;7.524;2023-07-20T09:17:41;6.00;;;4.00;;
21181;SDS011;10749;46.296;7.524;2023-07-20T09:20:11;4.50;;;3.42;;
21181;SDS011;10749;46.296;7.524;2023-07-20T09:22:37;6.25;;;3.85;;
21181;SDS011;10749;46.296;7.524;2023-07-20T09:25:10;6.47;;;3.90;;
21181;SDS011;10749;46.296;7.524;2023-07-20T09:27:44;3.72;;;3.28;;
21181;SDS011;10749;46.296;7.524;2023-07-20T09:30:11;7.13;;;3.30;;
21181;SDS011;10749;46.296;7.524;2023-07-20T09:32:39;4.47;;;3.40;;
21181;SDS011;10749;46.296;7.524;2023-07-20T09:35:05;5.10;;;3.55;;
21181;SDS011;10749;46.296;7.524;2023-07-20T09:37:32;6.53;;;3.90;;
21181;SDS011;10749;46.296;7.524;2023-07-20T09:39:58;5.45;;;3.70;;
21181;SDS011;10749;46.296;7.524;2023-07-20T09:42:24;5.45;;;3.47;;
21181;SDS011;10749;46.296;7.524;2023-07-20T09:44:50;6.82;;;3.75;;
21181;SDS011;10749;46.296;7.524;2023-07-20T09:47:23;5.63;;;3.70;;
21181;SDS011;10749;46.296;7.524;2023-07-20T09:49:49;4.65;;;3.50;;
21181;SDS011;10749;46.296;7.524;2023-07-20T09:52:14;5.35;;;3.53;;
21181;SDS011;10749;46.296;7.524;2023-07-20T09:54:40;4.20;;;3.80;;
21181;SDS011;10749;46.296;7.524;2023-07-20T09:57:07;4.78;;;3.58;;
21181;SDS011;10749;46.296;7.524;2023-07-20T09:59:37;7.70;;;3.33;;
21181;SDS011;10749;46.296;7.524;2023-07-20T10:02:04;5.82;;;3.70;;
21181;SDS011;10749;46.296;7.524;2023-07-20T10:04:40;6.53;;;3.53;;
21181;SDS011;10749;46.296;7.524;2023-07-20T10:07:09;6.40;;;3.45;;
21181;SDS011;10749;46.296;7.524;2023-07-20T10:09:37;8.55;;;4.05;;
21181;SDS011;10749;46.296;7.524;2023-07-20T10:12:04;5.50;;;3.55;;
21181;SDS011;10749;46.296;7.524;2023-07-20T10:14:33;5.18;;;3.53;;
21181;SDS011;10749;46.296;7.524;2023-07-20T10:17:03;5.85;;;3.00;;
21181;SDS011;10749;46.296;7.524;2023-07-20T10:22:07;3.90;;;3.38;;
21181;SDS011;10749;46.296;7.524;2023-07-20T10:24:37;6.35;;;3.25;;
21181;SDS011;10749;46.296;7.524;2023-07-20T10:27:04;4.70;;;3.22;;
21181;SDS011;10749;46.296;7.524;2023-07-20T10:29:30;5.20;;;3.42;;
21181;SDS011;10749;46.296;7.524;2023-07-20T10:31:56;7.43;;;3.67;;
21181;SDS011;10749;46.296;7.524;2023-07-20T10:34:22;6.25;;;3.63;;
21181;SDS011;10749;46.296;7.524;2023-07-20T10:36:48;4.05;;;3.40;;
21181;SDS011;10749;46.296;7.524;2023-07-20T10:42:11;5.43;;;3.60;;
21181;SDS011;10749;46.296;7.524;2023-07-20T10:44:37;5.75;;;3.30;;
21181;SDS011;10749;46.296;7.524;2023-07-20T10:47:08;4.65;;;3.35;;
21181;SDS011;10749;46.296;7.524;2023-07-20T10:49:34;4.75;;;3.67;;
21181;SDS011;10749;46.296;7.524;2023-07-20T10:52:03;5.47;;;3.33;;
21181;SDS011;10749;46.296;7.524;2023-07-20T10:56:56;5.65;;;3.20;;
21181;SDS011;10749;46.296;7.524;2023-07-20T11:01:48;5.43;;;2.97;;
21181;SDS011;10749;46.296;7.524;2023-07-20T11:04:15;5.82;;;3.33;;
21181;SDS011;10749;46.296;7.524;2023-07-20T11:06:44;5.47;;;3.28;;
21181;SDS011;10749;46.296;7.524;2023-07-20T11:09:22;3.78;;;3.08;;
21181;SDS011;10749;46.296;7.524;2023-07-20T11:11:50;5.13;;;3.40;;
21181;SDS011;10749;46.296;7.524;2023-07-20T11:14:34;4.28;;;3.25;;
21181;SDS011;10749;46.296;7.524;2023-07-20T11:17:12;4.15;;;3.17;;
21181;SDS011;10749;46.296;7.524;2023-07-20T11:19:38;4.53;;;3.63;;
21181;SDS011;10749;46.296;7.524;2023-07-20T11:22:05;6.75;;;3.28;;
21181;SDS011;10749;46.296;7.524;2023-07-20T11:24:32;3.42;;;3.10;;
21181;SDS011;10749;46.296;7.524;2023-07-20T11:26:58;3.42;;;3.00;;
21181;SDS011;10749;46.296;7.524;2023-07-20T11:29:24;4.07;;;3.25;;
21181;SDS011;10749;46.296;7.524;2023-07-20T11:31:52;4.03;;;3.40;;
21181;SDS011;10749;46.296;7.524;2023-07-20T11:34:20;4.20;;;3.03;;
21181;SDS011;10749;46.296;7.524;2023-07-20T11:36:47;4.95;;;3.00;;
21181;SDS011;10749;46.296;7.524;2023-07-20T11:39:14;5.50;;;3.13;;
21181;SDS011;10749;46.296;7.524;2023-07-20T11:41:54;4.18;;;3.25;;
21181;SDS011;10749;46.296;7.524;2023-07-20T11:44:21;4.72;;;3.22;;
21181;SDS011;10749;46.296;7.524;2023-07-20T11:47:04;6.55;;;3.22;;
21181;SDS011;10749;46.296;7.524;2023-07-20T11:49:38;6.03;;;3.60;;
21181;SDS011;10749;46.296;7.524;2023-07-20T11:52:09;4.25;;;3.22;;
21181;SDS011;10749;46.296;7.524;2023-07-20T11:54:37;4.72;;;3.20;;
21181;SDS011;10749;46.296;7.524;2023-07-20T11:57:04;4.75;;;3.28;;
21181;SDS011;10749;46.296;7.524;2023-07-20T11:59:30;6.25;;;3.25;;
21181;SDS011;10749;46.296;7.524;2023-07-20T12:01:56;5.07;;;3.25;;
21181;SDS011;10749;46.296;7.524;2023-07-20T12:04:22;3.95;;;2.85;;
21181;SDS011;10749;46.296;7.524;2023-07-20T12:06:48;8.13;;;3.30;;
21181;SDS011;10749;46.296;7.524;2023-07-20T12:09:14;5.72;;;3.17;;
21181;SDS011;10749;46.296;7.524;2023-07-20T12:11:42;5.82;;;3.10;;
21181;SDS011;10749;46.296;7.524;2023-07-20T12:14:09;5.10;;;3.20;;
21181;SDS011;10749;46.296;7.524;2023-07-20T12:16:35;5.05;;;3.08;;
21181;SDS011;10749;46.296;7.524;2023-07-20T12:19:02;8.02;;;3.60;;
21181;SDS011;10749;46.296;7.524;2023-07-20T12:21:29;5.85;;;2.97;;
21181;SDS011;10749;46.296;7.524;2023-07-20T12:23:56;3.70;;;3.05;;
21181;SDS011;10749;46.296;7.524;2023-07-20T12:26:23;4.05;;;3.30;;
21181;SDS011;10749;46.296;7.524;2023-07-20T12:28:50;6.53;;;3.45;;
21181;SDS011;10749;46.296;7.524;2023-07-20T12:31:15;3.88;;;2.95;;
21181;SDS011;10749;46.296;7.524;2023-07-20T12:33:41;4.72;;;3.20;;
21181;SDS011;10749;46.296;7.524;2023-07-20T12:36:06;6.25;;;3.22;;
21181;SDS011;10749;46.296;7.524;2023-07-20T12:38:33;4.18;;;3.05;;
21181;SDS011;10749;46.296;7.524;2023-07-20T12:41:00;4.47;;;2.95;;
21181;SDS011;10749;46.296;7.524;2023-07-20T12:43:26;3.78;;;3.00;;
21181;SDS011;10749;46.296;7.524;2023-07-20T12:45:51;6.28;;;3.28;;
21181;SDS011;10749;46.296;7.524;2023-07-20T12:48:17;5.28;;;3.10;;
21181;SDS011;10749;46.296;7.524;2023-07-20T12:50:42;4.30;;;3.30;;
21181;SDS011;10749;46.296;7.524;2023-07-20T12:53:07;3.15;;;2.53;;
21181;SDS011;10749;46.296;7.524;2023-07-20T12:55:33;6.13;;;3.10;;
21181;SDS011;10749;46.296;7.524;2023-07-20T12:57:58;3.25;;;2.90;;
21181;SDS011;10749;46.296;7.524;2023-07-20T13:00:24;5.90;;;2.78;;
21181;SDS011;10749;46.296;7.524;2023-07-20T13:02:49;6.63;;;3.08;;
21181;SDS011;10749;46.296;7.524;2023-07-20T13:05:17;5.10;;;2.70;;
21181;SDS011;10749;46.296;7.524;2023-07-20T13:07:43;4.82;;;3.25;;
21181;SDS011;10749;46.296;7.524;2023-07-20T13:10:08;4.68;;;3.05;;
21181;SDS011;10749;46.296;7.524;2023-07-20T13:12:35;3.53;;;2.92;;
21181;SDS011;10749;46.296;7.524;2023-07-20T13:15:02;7.03;;;3.05;;
21181;SDS011;10749;46.296;7.524;2023-07-20T13:17:31;5.65;;;2.92;;
21181;SDS011;10749;46.296;7.524;2023-07-20T13:19:56;5.38;;;3.08;;
21181;SDS011;10749;46.296;7.524;2023-07-20T13:22:22;6.55;;;3.20;;
21181;SDS011;10749;46.296;7.524;2023-07-20T13:24:48;5.45;;;2.80;;
21181;SDS011;10749;46.296;7.524;2023-07-20T13:27:14;4.93;;;2.90;;
21181;SDS011;10749;46.296;7.524;2023-07-20T13:29:40;6.13;;;2.97;;
21181;SDS011;10749;46.296;7.524;2023-07-20T13:32:06;5.63;;;2.92;;
21181;SDS011;10749;46.296;7.524;2023-07-20T13:34:32;3.47;;;2.60;;
21181;SDS011;10749;46.296;7.524;2023-07-20T13:36:57;5.03;;;2.80;;
21181;SDS011;10749;46.296;7.524;2023-07-20T13:39:23;4.03;;;2.90;;
21181;SDS011;10749;46.296;7.524;2023-07-20T13:41:51;5.78;;;2.70;;
21181;SDS011;10749;46.296;7.524;2023-07-20T13:44:16;5.22;;;3.28;;
21181;SDS011;10749;46.296;7.524;2023-07-20T13:46:41;4.63;;;2.70;;
21181;SDS011;10749;46.296;7.524;2023-07-20T13:49:07;4.95;;;2.80;;
21181;SDS011;10749;46.296;7.524;2023-07-20T13:51:32;5.97;;;2.97;;
21181;SDS011;10749;46.296;7.524;2023-07-20T13:53:57;8.30;;;3.10;;
21181;SDS011;10749;46.296;7.524;2023-07-20T13:56:23;4.10;;;2.80;;
21181;SDS011;10749;46.296;7.524;2023-07-20T13:58:49;4.45;;;2.70;;
21181;SDS011;10749;46.296;7.524;2023-07-20T14:01:15;3.75;;;2.58;;
21181;SDS011;10749;46.296;7.524;2023-07-20T14:03:42;5.50;;;2.83;;
21181;SDS011;10749;46.296;7.524;2023-07-20T14:06:08;5.40;;;2.85;;
21181;SDS011;10749;46.296;7.524;2023-07-20T14:08:33;3.65;;;2.85;;
21181;SDS011;10749;46.296;7.524;2023-07-20T14:10:58;5.72;;;2.90;;
21181;SDS011;10749;46.296;7.524;2023-07-20T14:13:24;6.75;;;3.00;;
21181;SDS011;10749;46.296;7.524;2023-07-20T14:15:49;4.22;;;2.92;;
21181;SDS011;10749;46.296;7.524;2023-07-20T14:18:15;5.18;;;2.80;;
21181;SDS011;10749;46.296;7.524;2023-07-20T14:20:40;5.13;;;2.75;;
21181;SDS011;10749;46.296;7.524;2023-07-20T14:23:07;3.90;;;2.70;;
21181;SDS011;10749;46.296;7.524;2023-07-20T14:25:32;4.88;;;2.85;;
21181;SDS011;10749;46.296;7.524;2023-07-20T14:27:58;3.13;;;2.50;;
21181;SDS011;10749;46.296;7.524;2023-07-20T14:30:24;4.18;;;2.83;;
21181;SDS011;10749;46.296;7.524;2023-07-20T14:32:50;6.78;;;2.45;;
21181;SDS011;10749;46.296;7.524;2023-07-20T14:35:15;5.75;;;3.15;;
21181;SDS011;10749;46.296;7.524;2023-07-20T14:37:40;6.63;;;3.08;;
21181;SDS011;10749;46.296;7.524;2023-07-20T14:40:06;3.50;;;2.65;;
21181;SDS011;10749;46.296;7.524;2023-07-20T14:42:32;4.75;;;2.70;;
21181;SDS011;10749;46.296;7.524;2023-07-20T14:44:57;5.25;;;3.08;;
21181;SDS011;10749;46.296;7.524;2023-07-20T14:47:23;5.53;;;3.00;;
21181;SDS011;10749;46.296;7.524;2023-07-20T14:49:48;4.35;;;2.55;;
21181;SDS011;10749;46.296;7.524;2023-07-20T14:52:14;4.50;;;2.72;;
21181;SDS011;10749;46.296;7.524;2023-07-20T14:54:39;4.25;;;2.75;;
21181;SDS011;10749;46.296;7.524;2023-07-20T14:57:05;4.40;;;2.80;;
21181;SDS011;10749;46.296;7.524;2023-07-20T14:59:38;5.53;;;2.47;;